sensor_id;sensor_type;location;lat;lon;timestamp;temperature;humidity
55329;DHT22;41205;44.264;19.884;2023-04-24T00:01:50;333.60;2329.60
55329;DHT22;41205;44.264;19.884;2023-04-24T00:04:16;333.60;2329.60
55329;DHT22;41205;44.264;19.884;2023-04-24T00:06:42;333.60;2329.60
55329;DHT22;41205;44.264;19.884;2023-04-24T00:09:09;333.60;2329.60
55329;DHT22;41205;44.264;19.884;2023-04-24T00:11:35;333.60;2329.60
55329;DHT22;41205;44.264;19.884;2023-04-24T00:14:02;333.50;2329.60
55329;DHT22;41205;44.264;19.884;2023-04-24T00:16:27;333.60;2329.60
55329;DHT22;41205;44.264;19.884;2023-04-24T00:18:53;333.60;2329.60
55329;DHT22;41205;44.264;19.884;2023-04-24T00:21:19;333.60;2329.60
55329;DHT22;41205;44.264;19.884;2023-04-24T00:23:45;333.70;2329.60
55329;DHT22;41205;44.264;19.884;2023-04-24T00:26:11;333.70;2329.60
55329;DHT22;41205;44.264;19.884;2023-04-24T00:28:37;333.70;2329.60
55329;DHT22;41205;44.264;19.884;2023-04-24T00:31:03;333.50;2329.60
55329;DHT22;41205;44.264;19.884;2023-04-24T00:33:28;333.50;2329.60
55329;DHT22;41205;44.264;19.884;2023-04-24T00:35:54;333.20;2329.60
55329;DHT22;41205;44.264;19.884;2023-04-24T00:38:20;333.10;2329.60
55329;DHT22;41205;44.264;19.884;2023-04-24T00:40:48;333.20;2329.60
55329;DHT22;41205;44.264;19.884;2023-04-24T00:43:15;333.30;2329.60
55329;DHT22;41205;44.264;19.884;2023-04-24T00:45:41;333.30;2329.60
55329;DHT22;41205;44.264;19.884;2023-04-24T00:48:07;333.30;2329.60
55329;DHT22;41205;44.264;19.884;2023-04-24T00:50:35;333.30;2329.60
55329;DHT22;41205;44.264;19.884;2023-04-24T00:53:01;333.30;2329.60
55329;DHT22;41205;44.264;19.884;2023-04-24T00:55:26;333.40;2329.60
55329;DHT22;41205;44.264;19.884;2023-04-24T00:57:52;333.40;2329.60
55329;DHT22;41205;44.264;19.884;2023-04-24T01:00:19;333.40;2329.60
55329;DHT22;41205;44.264;19.884;2023-04-24T01:02:45;333.30;2329.60
55329;DHT22;41205;44.264;19.884;2023-04-24T01:05:12;333.40;2329.60
55329;DHT22;41205;44.264;19.884;2023-04-24T01:07:39;333.40;2329.60
55329;DHT22;41205;44.264;19.884;2023-04-24T01:10:07;333.40;2329.60
55329;DHT22;41205;44.264;19.884;2023-04-24T01:12:33;333.40;2329.60
55329;DHT22;41205;44.264;19.884;2023-04-24T01:14:59;333.40;2329.60
55329;DHT22;41205;44.264;19.884;2023-04-24T01:17:25;333.40;2329.60
55329;DHT22;41205;44.264;19.884;2023-04-24T01:19:50;333.40;2329.60
55329;DHT22;41205;44.264;19.884;2023-04-24T01:22:19;333.40;2329.60
55329;DHT22;41205;44.264;19.884;2023-04-24T01:24:46;333.40;2329.60
55329;DHT22;41205;44.264;19.884;2023-04-24T01:27:12;333.20;2329.60
55329;DHT22;41205;44.264;19.884;2023-04-24T01:29:38;333.20;2329.60
55329;DHT22;41205;44.264;19.884;2023-04-24T01:32:05;333.20;2329.60
55329;DHT22;41205;44.264;19.884;2023-04-24T01:34:31;333.00;2329.60
55329;DHT22;41205;44.264;19.884;2023-04-24T01:36:57;333.00;2329.60
55329;DHT22;41205;44.264;19.884;2023-04-24T01:39:23;333.10;2329.60
55329;DHT22;41205;44.264;19.884;2023-04-24T01:41:51;333.10;2329.60
55329;DHT22;41205;44.264;19.884;2023-04-24T01:44:18;333.10;2329.60
55329;DHT22;41205;44.264;19.884;2023-04-24T01:46:44;333.20;2329.60
55329;DHT22;41205;44.264;19.884;2023-04-24T01:49:10;333.10;2329.60
55329;DHT22;41205;44.264;19.884;2023-04-24T01:51:35;333.00;2329.60
55329;DHT22;41205;44.264;19.884;2023-04-24T01:54:01;333.00;2329.60
55329;DHT22;41205;44.264;19.884;2023-04-24T01:56:29;333.00;2329.60
55329;DHT22;41205;44.264;19.884;2023-04-24T01:58:56;333.00;2329.60
55329;DHT22;41205;44.264;19.884;2023-04-24T02:01:23;332.90;2329.60
55329;DHT22;41205;44.264;19.884;2023-04-24T02:03:50;332.80;2329.60
55329;DHT22;41205;44.264;19.884;2023-04-24T02:06:15;332.90;2329.60
55329;DHT22;41205;44.264;19.884;2023-04-24T02:08:41;332.90;2329.60
55329;DHT22;41205;44.264;19.884;2023-04-24T02:11:09;332.80;2329.60
55329;DHT22;41205;44.264;19.884;2023-04-24T02:13:35;332.80;2329.60
55329;DHT22;41205;44.264;19.884;2023-04-24T02:16:01;332.80;2329.60
55329;DHT22;41205;44.264;19.884;2023-04-24T02:18:26;308.10;2304.00
55329;DHT22;41205;44.264;19.884;2023-04-24T02:20:52;308.00;2304.00
55329;DHT22;41205;44.264;19.884;2023-04-24T02:23:18;308.00;2304.00
55329;DHT22;41205;44.264;19.884;2023-04-24T02:25:44;307.80;2304.00
55329;DHT22;41205;44.264;19.884;2023-04-24T02:28:09;307.60;2304.00
55329;DHT22;41205;44.264;19.884;2023-04-24T02:30:35;307.60;2304.00
55329;DHT22;41205;44.264;19.884;2023-04-24T02:33:01;307.70;2304.00
55329;DHT22;41205;44.264;19.884;2023-04-24T02:35:36;307.70;2304.00
55329;DHT22;41205;44.264;19.884;2023-04-24T02:38:01;307.70;2304.00
55329;DHT22;41205;44.264;19.884;2023-04-24T02:40:28;307.70;2304.00
55329;DHT22;41205;44.264;19.884;2023-04-24T02:42:54;307.80;2304.00
55329;DHT22;41205;44.264;19.884;2023-04-24T02:45:20;307.90;2304.00
55329;DHT22;41205;44.264;19.884;2023-04-24T02:47:45;308.00;2304.00
55329;DHT22;41205;44.264;19.884;2023-04-24T02:50:11;308.00;2304.00
55329;DHT22;41205;44.264;19.884;2023-04-24T02:52:37;308.10;2304.00
55329;DHT22;41205;44.264;19.884;2023-04-24T02:55:03;308.00;2304.00
55329;DHT22;41205;44.264;19.884;2023-04-24T02:57:28;308.10;2304.00
55329;DHT22;41205;44.264;19.884;2023-04-24T02:59:54;308.10;2304.00
55329;DHT22;41205;44.264;19.884;2023-04-24T03:02:20;308.00;2304.00
55329;DHT22;41205;44.264;19.884;2023-04-24T03:04:46;307.90;2304.00
55329;DHT22;41205;44.264;19.884;2023-04-24T03:07:13;307.90;2304.00
55329;DHT22;41205;44.264;19.884;2023-04-24T03:09:40;307.70;2304.00
55329;DHT22;41205;44.264;19.884;2023-04-24T03:12:06;307.80;2304.00
55329;DHT22;41205;44.264;19.884;2023-04-24T03:14:32;307.70;2304.00
55329;DHT22;41205;44.264;19.884;2023-04-24T03:16:58;307.60;2304.00
55329;DHT22;41205;44.264;19.884;2023-04-24T03:19:24;307.60;2304.00
55329;DHT22;41205;44.264;19.884;2023-04-24T03:21:50;307.60;2304.00
55329;DHT22;41205;44.264;19.884;2023-04-24T03:24:16;307.60;2304.00
55329;DHT22;41205;44.264;19.884;2023-04-24T03:26:41;307.70;2304.00
55329;DHT22;41205;44.264;19.884;2023-04-24T03:29:07;307.80;2304.00
55329;DHT22;41205;44.264;19.884;2023-04-24T03:31:33;307.80;2304.00
55329;DHT22;41205;44.264;19.884;2023-04-24T03:33:58;307.70;2304.00
55329;DHT22;41205;44.264;19.884;2023-04-24T03:36:24;307.70;2304.00
55329;DHT22;41205;44.264;19.884;2023-04-24T03:38:51;307.80;2304.00
55329;DHT22;41205;44.264;19.884;2023-04-24T03:41:17;307.70;2304.00
55329;DHT22;41205;44.264;19.884;2023-04-24T03:43:42;307.70;2304.00
55329;DHT22;41205;44.264;19.884;2023-04-24T03:46:08;307.70;2304.00
55329;DHT22;41205;44.264;19.884;2023-04-24T03:48:35;282.50;2278.40
55329;DHT22;41205;44.264;19.884;2023-04-24T03:51:00;307.80;2304.00
55329;DHT22;41205;44.264;19.884;2023-04-24T03:53:26;307.90;2304.00
55329;DHT22;41205;44.264;19.884;2023-04-24T03:55:53;308.00;2304.00
55329;DHT22;41205;44.264;19.884;2023-04-24T03:58:19;308.10;2304.00
55329;DHT22;41205;44.264;19.884;2023-04-24T04:00:44;332.80;2329.60
55329;DHT22;41205;44.264;19.884;2023-04-24T04:03:12;332.80;2329.60
55329;DHT22;41205;44.264;19.884;2023-04-24T04:05:39;332.90;2329.60
55329;DHT22;41205;44.264;19.884;2023-04-24T04:08:05;332.90;2329.60
55329;DHT22;41205;44.264;19.884;2023-04-24T04:10:30;333.00;2329.60
55329;DHT22;41205;44.264;19.884;2023-04-24T04:12:56;333.10;2329.60
55329;DHT22;41205;44.264;19.884;2023-04-24T04:15:22;333.00;2329.60
55329;DHT22;41205;44.264;19.884;2023-04-24T04:17:47;333.10;2329.60
55329;DHT22;41205;44.264;19.884;2023-04-24T04:20:13;333.20;2329.60
55329;DHT22;41205;44.264;19.884;2023-04-24T04:22:39;333.20;2329.60
55329;DHT22;41205;44.264;19.884;2023-04-24T04:25:05;333.20;2329.60
55329;DHT22;41205;44.264;19.884;2023-04-24T04:27:32;333.20;2329.60
55329;DHT22;41205;44.264;19.884;2023-04-24T04:30:01;333.20;2329.60
55329;DHT22;41205;44.264;19.884;2023-04-24T04:32:33;333.20;2329.60
55329;DHT22;41205;44.264;19.884;2023-04-24T04:35:00;333.20;2329.60
55329;DHT22;41205;44.264;19.884;2023-04-24T04:37:30;333.30;2329.60
55329;DHT22;41205;44.264;19.884;2023-04-24T04:39:59;333.40;2329.60
55329;DHT22;41205;44.264;19.884;2023-04-24T04:42:26;333.30;2329.60
55329;DHT22;41205;44.264;19.884;2023-04-24T04:44:52;333.50;2329.60
55329;DHT22;41205;44.264;19.884;2023-04-24T04:47:20;333.60;2329.60
55329;DHT22;41205;44.264;19.884;2023-04-24T04:49:47;333.60;2329.60
55329;DHT22;41205;44.264;19.884;2023-04-24T04:52:13;358.40;2329.60
55329;DHT22;41205;44.264;19.884;2023-04-24T04:54:39;358.70;2329.60
55329;DHT22;41205;44.264;19.884;2023-04-24T04:57:05;358.90;2329.60
55329;DHT22;41205;44.264;19.884;2023-04-24T04:59:31;384.70;2329.60
55329;DHT22;41205;44.264;19.884;2023-04-24T05:01:56;410.40;2355.20
55329;DHT22;41205;44.264;19.884;2023-04-24T05:04:22;410.50;2355.20
55329;DHT22;41205;44.264;19.884;2023-04-24T05:06:48;487.00;2124.80
55329;DHT22;41205;44.264;19.884;2023-04-24T05:09:13;563.20;1971.20
55329;DHT22;41205;44.264;19.884;2023-04-24T05:11:39;614.50;1689.60
55329;DHT22;41205;44.264;19.884;2023-04-24T05:14:05;615.00;1561.60
55329;DHT22;41205;44.264;19.884;2023-04-24T05:16:31;640.30;1536.00
55329;DHT22;41205;44.264;19.884;2023-04-24T05:18:57;640.50;1536.00
55329;DHT22;41205;44.264;19.884;2023-04-24T05:21:22;640.20;1510.40
55329;DHT22;41205;44.264;19.884;2023-04-24T05:23:48;589.00;1664.00
55329;DHT22;41205;44.264;19.884;2023-04-24T05:26:14;563.20;1766.40
55329;DHT22;41205;44.264;19.884;2023-04-24T05:28:40;563.70;1715.20
55329;DHT22;41205;44.264;19.884;2023-04-24T05:31:06;614.90;1561.60
55329;DHT22;41205;44.264;19.884;2023-04-24T05:33:32;589.20;1638.40
55329;DHT22;41205;44.264;19.884;2023-04-24T05:35:57;588.90;1638.40
55329;DHT22;41205;44.264;19.884;2023-04-24T05:38:23;563.90;1689.60
55329;DHT22;41205;44.264;19.884;2023-04-24T05:40:49;563.90;1715.20
55329;DHT22;41205;44.264;19.884;2023-04-24T05:43:15;589.40;1664.00
55329;DHT22;41205;44.264;19.884;2023-04-24T05:45:40;614.40;1638.40
55329;DHT22;41205;44.264;19.884;2023-04-24T05:48:06;589.70;1612.80
55329;DHT22;41205;44.264;19.884;2023-04-24T05:50:32;589.20;1689.60
55329;DHT22;41205;44.264;19.884;2023-04-24T05:52:58;563.90;1740.80
55329;DHT22;41205;44.264;19.884;2023-04-24T05:55:24;538.10;1792.00
55329;DHT22;41205;44.264;19.884;2023-04-24T05:57:51;538.40;1792.00
55329;DHT22;41205;44.264;19.884;2023-04-24T06:00:17;538.40;1766.40
55329;DHT22;41205;44.264;19.884;2023-04-24T06:02:45;563.20;1792.00
55329;DHT22;41205;44.264;19.884;2023-04-24T06:05:10;563.90;1740.80
55329;DHT22;41205;44.264;19.884;2023-04-24T06:07:36;615.00;1612.80
55329;DHT22;41205;44.264;19.884;2023-04-24T06:10:02;614.60;1664.00
55329;DHT22;41205;44.264;19.884;2023-04-24T06:12:28;615.20;1587.20
55329;DHT22;41205;44.264;19.884;2023-04-24T06:14:53;666.00;1561.60
55329;DHT22;41205;44.264;19.884;2023-04-24T06:17:20;691.40;1484.80
55329;DHT22;41205;44.264;19.884;2023-04-24T06:19:46;691.20;1484.80
55329;DHT22;41205;44.264;19.884;2023-04-24T06:22:12;640.70;1536.00
55329;DHT22;41205;44.264;19.884;2023-04-24T06:24:39;614.70;1612.80
55329;DHT22;41205;44.264;19.884;2023-04-24T06:27:05;589.30;1715.20
55329;DHT22;41205;44.264;19.884;2023-04-24T06:29:32;563.90;1766.40
55329;DHT22;41205;44.264;19.884;2023-04-24T06:31:58;538.10;1817.60
55329;DHT22;41205;44.264;19.884;2023-04-24T06:34:24;512.60;1868.80
55329;DHT22;41205;44.264;19.884;2023-04-24T06:36:50;512.60;1868.80
55329;DHT22;41205;44.264;19.884;2023-04-24T06:39:16;512.40;1894.40
55329;DHT22;41205;44.264;19.884;2023-04-24T06:41:41;512.00;1868.80
55329;DHT22;41205;44.264;19.884;2023-04-24T06:44:07;487.20;1894.40
55329;DHT22;41205;44.264;19.884;2023-04-24T06:46:33;487.20;1920.00
55329;DHT22;41205;44.264;19.884;2023-04-24T06:48:59;487.30;1945.60
55329;DHT22;41205;44.264;19.884;2023-04-24T06:51:26;487.10;1971.20
55329;DHT22;41205;44.264;19.884;2023-04-24T06:53:55;487.10;1971.20
55329;DHT22;41205;44.264;19.884;2023-04-24T06:56:24;487.00;2022.40
55329;DHT22;41205;44.264;19.884;2023-04-24T06:58:50;487.20;2048.00
55329;DHT22;41205;44.264;19.884;2023-04-24T07:01:17;487.10;2073.60
55329;DHT22;41205;44.264;19.884;2023-04-24T07:03:42;487.20;2048.00
55329;DHT22;41205;44.264;19.884;2023-04-24T07:06:09;487.10;2073.60
55329;DHT22;41205;44.264;19.884;2023-04-24T07:08:38;486.90;2124.80
55329;DHT22;41205;44.264;19.884;2023-04-24T07:11:04;486.80;2073.60
55329;DHT22;41205;44.264;19.884;2023-04-24T07:13:31;486.80;2099.20
55329;DHT22;41205;44.264;19.884;2023-04-24T07:15:56;487.20;2073.60
55329;DHT22;41205;44.264;19.884;2023-04-24T07:18:22;512.30;2048.00
55329;DHT22;41205;44.264;19.884;2023-04-24T07:20:48;537.60;1945.60
55329;DHT22;41205;44.264;19.884;2023-04-24T07:23:17;538.00;2022.40
55329;DHT22;41205;44.264;19.884;2023-04-24T07:25:43;538.10;2099.20
55329;DHT22;41205;44.264;19.884;2023-04-24T07:28:09;512.50;2176.00
55329;DHT22;41205;44.264;19.884;2023-04-24T07:30:35;512.20;2201.60
55329;DHT22;41205;44.264;19.884;2023-04-24T07:33:01;487.30;2278.40
55329;DHT22;41205;44.264;19.884;2023-04-24T07:35:27;512.00;2252.80
55329;DHT22;41205;44.264;19.884;2023-04-24T07:37:53;487.20;2278.40
55329;DHT22;41205;44.264;19.884;2023-04-24T07:40:19;487.20;2304.00
55329;DHT22;41205;44.264;19.884;2023-04-24T07:42:45;487.30;2355.20
55329;DHT22;41205;44.264;19.884;2023-04-24T07:45:10;512.10;2355.20
55329;DHT22;41205;44.264;19.884;2023-04-24T07:47:36;512.10;2380.80
55329;DHT22;41205;44.264;19.884;2023-04-24T07:50:03;487.00;2380.80
55329;DHT22;41205;44.264;19.884;2023-04-24T07:52:29;486.50;2380.80
55329;DHT22;41205;44.264;19.884;2023-04-24T07:54:55;461.50;2380.80
55329;DHT22;41205;44.264;19.884;2023-04-24T07:57:24;461.20;2380.80
55329;DHT22;41205;44.264;19.884;2023-04-24T07:59:50;461.20;2380.80
55329;DHT22;41205;44.264;19.884;2023-04-24T08:02:16;461.00;2380.80
55329;DHT22;41205;44.264;19.884;2023-04-24T08:04:42;436.10;2355.20
55329;DHT22;41205;44.264;19.884;2023-04-24T08:07:08;460.80;2380.80
55329;DHT22;41205;44.264;19.884;2023-04-24T08:09:34;460.90;2380.80
55329;DHT22;41205;44.264;19.884;2023-04-24T08:12:00;460.80;2380.80
55329;DHT22;41205;44.264;19.884;2023-04-24T08:14:26;461.10;2380.80
55329;DHT22;41205;44.264;19.884;2023-04-24T08:16:54;461.10;2380.80
55329;DHT22;41205;44.264;19.884;2023-04-24T08:19:20;460.80;2380.80
55329;DHT22;41205;44.264;19.884;2023-04-24T08:21:46;436.10;2355.20
55329;DHT22;41205;44.264;19.884;2023-04-24T08:24:12;435.90;2355.20
55329;DHT22;41205;44.264;19.884;2023-04-24T08:26:38;435.70;2355.20
55329;DHT22;41205;44.264;19.884;2023-04-24T08:29:04;436.10;2355.20
55329;DHT22;41205;44.264;19.884;2023-04-24T08:31:30;436.10;2355.20
55329;DHT22;41205;44.264;19.884;2023-04-24T08:33:55;436.10;2355.20
55329;DHT22;41205;44.264;19.884;2023-04-24T08:36:21;460.80;2380.80
55329;DHT22;41205;44.264;19.884;2023-04-24T08:38:47;460.80;2380.80
55329;DHT22;41205;44.264;19.884;2023-04-24T08:41:14;461.10;2380.80
55329;DHT22;41205;44.264;19.884;2023-04-24T08:43:41;461.20;2380.80
55329;DHT22;41205;44.264;19.884;2023-04-24T08:46:07;461.20;2380.80
55329;DHT22;41205;44.264;19.884;2023-04-24T08:48:34;461.30;2380.80
55329;DHT22;41205;44.264;19.884;2023-04-24T08:51:00;461.40;2380.80
55329;DHT22;41205;44.264;19.884;2023-04-24T08:53:27;461.30;2380.80
55329;DHT22;41205;44.264;19.884;2023-04-24T08:55:55;461.10;2380.80
55329;DHT22;41205;44.264;19.884;2023-04-24T08:58:21;461.10;2380.80
55329;DHT22;41205;44.264;19.884;2023-04-24T09:00:48;460.90;2380.80
55329;DHT22;41205;44.264;19.884;2023-04-24T09:03:15;460.80;2380.80
55329;DHT22;41205;44.264;19.884;2023-04-24T09:05:43;460.80;2380.80
55329;DHT22;41205;44.264;19.884;2023-04-24T09:08:15;460.90;2380.80
55329;DHT22;41205;44.264;19.884;2023-04-24T09:10:41;461.00;2380.80
55329;DHT22;41205;44.264;19.884;2023-04-24T09:13:07;461.00;2380.80
55329;DHT22;41205;44.264;19.884;2023-04-24T09:15:38;461.00;2380.80
55329;DHT22;41205;44.264;19.884;2023-04-24T09:18:05;461.00;2380.80
55329;DHT22;41205;44.264;19.884;2023-04-24T09:20:31;461.00;2380.80
55329;DHT22;41205;44.264;19.884;2023-04-24T09:22:58;460.80;2380.80
55329;DHT22;41205;44.264;19.884;2023-04-24T09:25:34;435.80;2355.20
55329;DHT22;41205;44.264;19.884;2023-04-24T09:28:04;435.50;2355.20
55329;DHT22;41205;44.264;19.884;2023-04-24T09:30:32;435.50;2355.20
55329;DHT22;41205;44.264;19.884;2023-04-24T09:33:12;435.60;2355.20
55329;DHT22;41205;44.264;19.884;2023-04-24T09:35:41;435.70;2355.20
55329;DHT22;41205;44.264;19.884;2023-04-24T09:38:07;435.80;2355.20
55329;DHT22;41205;44.264;19.884;2023-04-24T09:40:34;435.90;2355.20
55329;DHT22;41205;44.264;19.884;2023-04-24T09:43:00;460.80;2380.80
55329;DHT22;41205;44.264;19.884;2023-04-24T09:45:31;461.20;2380.80
55329;DHT22;41205;44.264;19.884;2023-04-24T09:48:00;461.20;2380.80
55329;DHT22;41205;44.264;19.884;2023-04-24T09:50:26;461.40;2380.80
55329;DHT22;41205;44.264;19.884;2023-04-24T09:53:01;461.50;2380.80
55329;DHT22;41205;44.264;19.884;2023-04-24T09:55:27;461.60;2380.80
55329;DHT22;41205;44.264;19.884;2023-04-24T09:57:55;461.60;2380.80
55329;DHT22;41205;44.264;19.884;2023-04-24T10:00:31;461.70;2380.80
55329;DHT22;41205;44.264;19.884;2023-04-24T10:03:02;461.60;2380.80
55329;DHT22;41205;44.264;19.884;2023-04-24T10:05:30;461.50;2380.80
55329;DHT22;41205;44.264;19.884;2023-04-24T10:08:01;461.50;2380.80
55329;DHT22;41205;44.264;19.884;2023-04-24T10:10:29;461.50;2380.80
55329;DHT22;41205;44.264;19.884;2023-04-24T10:12:54;461.40;2380.80
55329;DHT22;41205;44.264;19.884;2023-04-24T10:15:21;461.30;2380.80
55329;DHT22;41205;44.264;19.884;2023-04-24T10:17:49;461.20;2380.80
55329;DHT22;41205;44.264;19.884;2023-04-24T10:20:22;461.30;2380.80
55329;DHT22;41205;44.264;19.884;2023-04-24T10:22:50;461.20;2380.80
55329;DHT22;41205;44.264;19.884;2023-04-24T10:25:26;461.20;2380.80
55329;DHT22;41205;44.264;19.884;2023-04-24T10:27:53;461.40;2380.80
55329;DHT22;41205;44.264;19.884;2023-04-24T10:30:22;461.40;2380.80
55329;DHT22;41205;44.264;19.884;2023-04-24T10:32:48;461.50;2380.80
55329;DHT22;41205;44.264;19.884;2023-04-24T10:35:16;461.50;2380.80
55329;DHT22;41205;44.264;19.884;2023-04-24T10:40:32;486.60;2380.80
55329;DHT22;41205;44.264;19.884;2023-04-24T10:43:04;486.90;2380.80
55329;DHT22;41205;44.264;19.884;2023-04-24T10:45:38;486.90;2380.80
55329;DHT22;41205;44.264;19.884;2023-04-24T10:48:04;487.00;2380.80
55329;DHT22;41205;44.264;19.884;2023-04-24T10:50:46;487.10;2380.80
55329;DHT22;41205;44.264;19.884;2023-04-24T10:53:17;487.30;2380.80
55329;DHT22;41205;44.264;19.884;2023-04-24T10:58:12;487.30;2380.80
55329;DHT22;41205;44.264;19.884;2023-04-24T11:00:39;512.30;2380.80
55329;DHT22;41205;44.264;19.884;2023-04-24T11:03:07;512.80;2380.80
55329;DHT22;41205;44.264;19.884;2023-04-24T11:05:56;537.70;2406.40
55329;DHT22;41205;44.264;19.884;2023-04-24T11:11:13;537.60;2406.40
55329;DHT22;41205;44.264;19.884;2023-04-24T11:16:26;512.70;2380.80
55329;DHT22;41205;44.264;19.884;2023-04-24T11:24:27;512.30;2380.80
55329;DHT22;41205;44.264;19.884;2023-04-24T11:26:59;512.10;2380.80
55329;DHT22;41205;44.264;19.884;2023-04-24T11:40:05;486.70;2380.80
55329;DHT22;41205;44.264;19.884;2023-04-24T11:42:53;486.90;2380.80
55329;DHT22;41205;44.264;19.884;2023-04-24T11:45:27;486.90;2380.80
55329;DHT22;41205;44.264;19.884;2023-04-24T11:47:53;486.90;2380.80
55329;DHT22;41205;44.264;19.884;2023-04-24T11:50:21;487.00;2380.80
55329;DHT22;41205;44.264;19.884;2023-04-24T11:52:48;486.80;2380.80
55329;DHT22;41205;44.264;19.884;2023-04-24T11:57:44;487.00;2380.80
55329;DHT22;41205;44.264;19.884;2023-04-24T12:00:31;487.20;2380.80
55329;DHT22;41205;44.264;19.884;2023-04-24T12:03:09;487.20;2380.80
55329;DHT22;41205;44.264;19.884;2023-04-24T12:05:36;512.00;2380.80
55329;DHT22;41205;44.264;19.884;2023-04-24T12:08:02;512.10;2380.80
55329;DHT22;41205;44.264;19.884;2023-04-24T12:10:30;512.30;2380.80
55329;DHT22;41205;44.264;19.884;2023-04-24T12:12:57;512.50;2380.80
55329;DHT22;41205;44.264;19.884;2023-04-24T12:15:24;512.60;2380.80
55329;DHT22;41205;44.264;19.884;2023-04-24T12:17:54;512.90;2380.80
55329;DHT22;41205;44.264;19.884;2023-04-24T12:20:31;537.70;2406.40
55329;DHT22;41205;44.264;19.884;2023-04-24T12:22:59;538.00;2406.40
55329;DHT22;41205;44.264;19.884;2023-04-24T12:25:26;538.20;2406.40
55329;DHT22;41205;44.264;19.884;2023-04-24T12:28:12;538.30;2406.40
55329;DHT22;41205;44.264;19.884;2023-04-24T12:30:41;538.50;2406.40
55329;DHT22;41205;44.264;19.884;2023-04-24T12:33:08;538.50;2406.40
55329;DHT22;41205;44.264;19.884;2023-04-24T12:35:33;538.50;2406.40
55329;DHT22;41205;44.264;19.884;2023-04-24T12:38:11;538.50;2406.40
55329;DHT22;41205;44.264;19.884;2023-04-24T12:40:38;538.50;2406.40
55329;DHT22;41205;44.264;19.884;2023-04-24T12:43:18;538.50;2406.40
55329;DHT22;41205;44.264;19.884;2023-04-24T12:45:44;563.30;2406.40
55329;DHT22;41205;44.264;19.884;2023-04-24T12:48:10;563.40;2432.00
55329;DHT22;41205;44.264;19.884;2023-04-24T12:50:38;563.40;2304.00
55329;DHT22;41205;44.264;19.884;2023-04-24T12:53:03;563.50;2201.60
55329;DHT22;41205;44.264;19.884;2023-04-24T12:55:29;563.60;2227.20
55329;DHT22;41205;44.264;19.884;2023-04-24T12:57:55;563.60;2304.00
55329;DHT22;41205;44.264;19.884;2023-04-24T13:00:21;563.60;2227.20
55329;DHT22;41205;44.264;19.884;2023-04-24T13:02:47;563.60;2227.20
55329;DHT22;41205;44.264;19.884;2023-04-24T13:05:13;563.20;2201.60
55329;DHT22;41205;44.264;19.884;2023-04-24T13:07:39;538.50;2124.80
55329;DHT22;41205;44.264;19.884;2023-04-24T13:10:06;538.20;2073.60
55329;DHT22;41205;44.264;19.884;2023-04-24T13:12:32;538.10;2150.40
55329;DHT22;41205;44.264;19.884;2023-04-24T13:14:58;538.20;2099.20
55329;DHT22;41205;44.264;19.884;2023-04-24T13:17:24;538.10;2048.00
55329;DHT22;41205;44.264;19.884;2023-04-24T13:19:51;538.10;1996.80
55329;DHT22;41205;44.264;19.884;2023-04-24T13:22:17;538.10;2048.00
55329;DHT22;41205;44.264;19.884;2023-04-24T13:24:46;538.20;2022.40
55329;DHT22;41205;44.264;19.884;2023-04-24T13:27:14;538.20;2022.40
55329;DHT22;41205;44.264;19.884;2023-04-24T13:29:40;538.20;2022.40
55329;DHT22;41205;44.264;19.884;2023-04-24T13:32:06;538.10;2073.60
55329;DHT22;41205;44.264;19.884;2023-04-24T13:34:32;538.10;2022.40
55329;DHT22;41205;44.264;19.884;2023-04-24T13:37:00;538.20;2022.40
55329;DHT22;41205;44.264;19.884;2023-04-24T13:39:26;538.30;2048.00
55329;DHT22;41205;44.264;19.884;2023-04-24T13:41:52;538.30;2022.40
55329;DHT22;41205;44.264;19.884;2023-04-24T13:44:19;538.30;1996.80
55329;DHT22;41205;44.264;19.884;2023-04-24T13:46:47;538.20;2022.40
55329;DHT22;41205;44.264;19.884;2023-04-24T13:49:14;538.10;1971.20
55329;DHT22;41205;44.264;19.884;2023-04-24T13:51:41;538.20;2022.40
55329;DHT22;41205;44.264;19.884;2023-04-24T13:54:07;538.10;1996.80
55329;DHT22;41205;44.264;19.884;2023-04-24T13:56:33;538.30;1971.20
55329;DHT22;41205;44.264;19.884;2023-04-24T13:58:59;538.40;1971.20
55329;DHT22;41205;44.264;19.884;2023-04-24T14:01:24;538.40;1971.20
55329;DHT22;41205;44.264;19.884;2023-04-24T14:03:51;538.40;2022.40
55329;DHT22;41205;44.264;19.884;2023-04-24T14:06:18;538.30;1996.80
55329;DHT22;41205;44.264;19.884;2023-04-24T14:08:44;538.40;1971.20
55329;DHT22;41205;44.264;19.884;2023-04-24T14:11:09;538.40;1971.20
55329;DHT22;41205;44.264;19.884;2023-04-24T14:13:36;538.30;1971.20
55329;DHT22;41205;44.264;19.884;2023-04-24T14:16:03;538.30;1971.20
55329;DHT22;41205;44.264;19.884;2023-04-24T14:18:29;538.30;1971.20
55329;DHT22;41205;44.264;19.884;2023-04-24T14:20:54;538.30;1971.20
55329;DHT22;41205;44.264;19.884;2023-04-24T14:23:20;538.30;1945.60
55329;DHT22;41205;44.264;19.884;2023-04-24T14:25:46;538.40;1971.20
55329;DHT22;41205;44.264;19.884;2023-04-24T14:28:13;538.40;1971.20
55329;DHT22;41205;44.264;19.884;2023-04-24T14:30:39;538.40;1945.60
55329;DHT22;41205;44.264;19.884;2023-04-24T14:33:06;538.40;1945.60
55329;DHT22;41205;44.264;19.884;2023-04-24T14:35:31;538.50;1971.20
55329;DHT22;41205;44.264;19.884;2023-04-24T14:37:59;538.50;1945.60
55329;DHT22;41205;44.264;19.884;2023-04-24T14:40:25;538.50;1945.60
55329;DHT22;41205;44.264;19.884;2023-04-24T14:42:51;538.50;1945.60
55329;DHT22;41205;44.264;19.884;2023-04-24T14:45:17;538.40;1945.60
55329;DHT22;41205;44.264;19.884;2023-04-24T14:47:43;538.30;1920.00
55329;DHT22;41205;44.264;19.884;2023-04-24T14:50:10;538.30;1920.00
55329;DHT22;41205;44.264;19.884;2023-04-24T14:52:37;538.10;1971.20
55329;DHT22;41205;44.264;19.884;2023-04-24T14:55:04;538.10;1945.60
55329;DHT22;41205;44.264;19.884;2023-04-24T14:57:30;538.10;1945.60
55329;DHT22;41205;44.264;19.884;2023-04-24T14:59:55;538.20;1945.60
55329;DHT22;41205;44.264;19.884;2023-04-24T15:02:21;538.00;1920.00
55329;DHT22;41205;44.264;19.884;2023-04-24T15:04:46;538.00;1920.00